Time;durP1;ratioP1;P1;durP2;ratioP2;P2;SDS_P1;SDS_P2;PMS_P1;PMS_P2;Temp;Humidity;BMP_temperature;BMP_pressure;BME280_temperature;BME280_humidity;BME280_pressure;Samples;Min_cycle;Max_cycle;Signal;HPM_P1;HPM_P2
2023/03/20 00:00:56;;;;;;;12.68;7.10;;;7.90;99.90;;;;;;5052480;28;20044;-86
2023/03/20 00:03:22;;;;;;;12.32;7.03;;;7.90;99.90;;;;;;5055531;28;20060;-86
2023/03/20 00:05:49;;;;;;;15.23;7.30;;;7.90;99.90;;;;;;5069412;28;20052;-86
2023/03/20 00:08:15;;;;;;;15.25;7.68;;;7.90;99.90;;;;;;5039821;28;20477;-85
2023/03/20 00:10:44;;;;;;;16.80;8.40;;;7.90;99.90;;;;;;5057625;28;20047;-87
2023/03/20 00:13:21;;;;;;;19.38;8.38;;;7.80;99.90;;;;;;5053534;28;20055;-86
2023/03/20 00:15:47;;;;;;;17.52;9.15;;;7.90;99.90;;;;;;5056095;28;20049;-86
2023/03/20 00:18:17;;;;;;;19.90;9.15;;;7.80;99.90;;;;;;5040644;28;20043;-86
2023/03/20 00:20:45;;;;;;;15.55;8.88;;;7.70;99.90;;;;;;5084490;28;20516;-86
2023/03/20 00:23:11;;;;;;;16.67;7.95;;;7.80;99.90;;;;;;5056107;28;20047;-85
2023/03/20 00:25:38;;;;;;;20.00;9.40;;;7.80;99.90;;;;;;5050725;28;20044;-86
2023/03/20 00:28:26;;;;;;;13.52;8.00;;;7.90;99.90;;;;;;5046905;28;20054;-86
2023/03/20 00:30:52;;;;;;;17.20;8.88;;;7.90;99.90;;;;;;5070947;28;20456;-86
2023/03/20 00:33:17;;;;;;;20.88;8.40;;;7.90;99.90;;;;;;5051730;28;20083;-86
2023/03/20 00:35:43;;;;;;;17.23;8.57;;;7.90;99.90;;;;;;5080395;28;20046;-86
2023/03/20 00:38:09;;;;;;;15.85;7.75;;;7.90;99.90;;;;;;5055860;28;20040;-85
2023/03/20 00:40:34;;;;;;;14.75;8.02;;;7.80;99.90;;;;;;5054694;28;20056;-86
2023/03/20 00:43:02;;;;;;;16.95;7.85;;;7.80;99.90;;;;;;5061222;28;20043;-86
2023/03/20 00:45:30;;;;;;;13.30;7.88;;;7.90;99.90;;;;;;5078324;28;20063;-86
2023/03/20 00:47:57;;;;;;;16.30;7.75;;;7.90;99.90;;;;;;5050005;28;20781;-86
2023/03/20 00:50:30;;;;;;;16.88;7.82;;;7.90;99.90;;;;;;5063996;28;20059;-86
2023/03/20 00:52:57;;;;;;;18.80;8.38;;;7.90;99.90;;;;;;5071130;28;20119;-87
2023/03/20 00:55:26;;;;;;;17.48;8.93;;;7.80;99.90;;;;;;5053032;28;20124;-86
2023/03/20 00:57:55;;;;;;;17.70;7.72;;;7.80;99.90;;;;;;5069968;28;20397;-86
2023/03/20 01:00:36;;;;;;;20.77;8.93;;;7.90;99.90;;;;;;5068498;28;20503;-86
2023/03/20 01:03:10;;;;;;;15.60;8.55;;;7.90;99.90;;;;;;5065654;28;20050;-86
2023/03/20 01:05:36;;;;;;;19.30;8.18;;;7.90;99.90;;;;;;5069714;28;20079;-85
2023/03/20 01:08:02;;;;;;;15.57;7.90;;;7.90;99.90;;;;;;5040624;28;20300;-86
2023/03/20 01:10:31;;;;;;;17.27;8.15;;;7.90;99.90;;;;;;5067762;28;20139;-86
2023/03/20 01:13:00;;;;;;;16.70;7.55;;;7.80;99.90;;;;;;5053523;28;20044;-86
2023/03/20 01:15:31;;;;;;;17.13;8.15;;;7.90;99.90;;;;;;5052527;28;20490;-87
2023/03/20 01:17:56;;;;;;;15.45;7.75;;;7.90;99.90;;;;;;5062888;28;20047;-87
2023/03/20 01:20:26;;;;;;;14.23;6.80;;;7.90;99.90;;;;;;5066449;28;20040;-87
2023/03/20 01:22:53;;;;;;;12.98;7.00;;;7.90;99.90;;;;;;5041714;28;20571;-86
2023/03/20 01:25:19;;;;;;;17.17;7.00;;;7.90;99.90;;;;;;5060507;28;20464;-86
2023/03/20 01:27:50;;;;;;;20.60;7.32;;;7.80;99.90;;;;;;5071296;28;20044;-87
2023/03/20 01:30:22;;;;;;;18.00;7.25;;;7.90;99.90;;;;;;5047069;28;20123;-86
2023/03/20 01:32:48;;;;;;;18.17;7.75;;;7.90;99.90;;;;;;5054672;28;20044;-86
2023/03/20 01:35:16;;;;;;;17.83;6.50;;;7.90;99.90;;;;;;5056611;28;20044;-86
2023/03/20 01:37:43;;;;;;;16.90;6.07;;;7.90;99.90;;;;;;5053005;28;20464;-86
2023/03/20 01:40:39;;;;;;;17.95;6.72;;;7.90;99.90;;;;;;5071517;28;20490;-85
2023/03/20 01:43:13;;;;;;;20.20;7.20;;;7.90;99.90;;;;;;5045576;28;20093;-85
2023/03/20 01:46:06;;;;;;;15.70;7.15;;;7.90;99.90;;;;;;5058472;28;20055;-86
2023/03/20 01:48:55;;;;;;;19.25;7.78;;;7.90;99.90;;;;;;5064052;28;20170;-86
2023/03/20 01:51:26;;;;;;;15.73;7.25;;;7.90;99.90;;;;;;5054648;28;20542;-86
2023/03/20 01:54:06;;;;;;;17.02;7.28;;;7.90;99.90;;;;;;5074350;28;20135;-86
2023/03/20 01:56:38;;;;;;;22.55;7.20;;;7.80;99.90;;;;;;5069814;28;20055;-86
2023/03/20 01:59:16;;;;;;;18.63;7.47;;;7.80;99.90;;;;;;5053722;28;20048;-86
2023/03/20 02:01:43;;;;;;;17.25;7.15;;;7.80;99.90;;;;;;5062065;28;20056;-86
2023/03/20 02:04:10;;;;;;;19.67;7.47;;;7.80;99.90;;;;;;5053776;28;20620;-87
2023/03/20 02:06:37;;;;;;;22.88;7.40;;;7.80;99.90;;;;;;5054983;28;20044;-86
2023/03/20 02:09:04;;;;;;;21.58;7.95;;;7.80;99.90;;;;;;5057097;28;20451;-86
2023/03/20 02:11:29;;;;;;;24.40;7.45;;;7.80;99.90;;;;;;5077967;28;20137;-86
2023/03/20 02:13:59;;;;;;;19.85;7.30;;;7.80;99.90;;;;;;5059175;28;20126;-86
2023/03/20 02:16:25;;;;;;;19.88;6.60;;;7.80;99.90;;;;;;5058406;28;20101;-86
2023/03/20 02:18:55;;;;;;;18.38;6.78;;;7.80;99.90;;;;;;5074315;28;20444;-86
2023/03/20 02:21:54;;;;;;;15.98;6.78;;;7.90;99.90;;;;;;5080883;28;20047;-86
2023/03/20 02:24:29;;;;;;;15.65;7.30;;;7.80;99.90;;;;;;5084784;28;20471;-86
2023/03/20 02:27:05;;;;;;;23.17;7.80;;;7.80;99.90;;;;;;5054156;28;20077;-86
2023/03/20 02:29:46;;;;;;;;;;;7.80;99.90;;;;;;5047246;28;20055;-85
2023/03/20 02:32:37;;;;;;;15.60;6.40;;;7.80;99.90;;;;;;5053402;28;19975;-85
2023/03/20 02:35:24;;;;;;;18.30;7.65;;;7.80;99.90;;;;;;5065218;28;20043;-86
2023/03/20 02:38:17;;;;;;;25.27;9.45;;;7.80;99.90;;;;;;5065924;28;20044;-85
2023/03/20 02:40:57;;;;;;;23.80;10.20;;;7.90;99.90;;;;;;5065625;28;20056;-86
2023/03/20 02:43:32;;;;;;;24.38;10.43;;;7.80;99.90;;;;;;5064030;28;20173;-86
2023/03/20 02:46:39;;;;;;;22.38;10.25;;;7.80;99.90;;;;;;5057244;28;20079;-86
2023/03/20 02:49:43;;;;;;;28.17;10.70;;;7.80;99.90;;;;;;5067515;28;20032;-86
2023/03/20 02:52:20;;;;;;;29.58;12.45;;;7.80;99.90;;;;;;5026046;28;20140;-86
2023/03/20 02:55:38;;;;;;;24.58;11.15;;;7.80;99.90;;;;;;5080931;28;20393;-87
2023/03/20 02:58:21;;;;;;;;;;;7.80;99.90;;;;;;5049357;28;20045;-86
2023/03/20 03:01:00;;;;;;;26.77;11.23;;;7.80;99.90;;;;;;5077228;28;20263;-87
2023/03/20 03:03:38;;;;;;;29.77;11.35;;;7.80;99.90;;;;;;5069166;28;20055;-85
2023/03/20 03:06:31;;;;;;;28.55;12.05;;;7.80;99.90;;;;;;5073541;28;20032;-86
2023/03/20 03:09:15;;;;;;;28.60;12.65;;;7.80;99.90;;;;;;5060466;28;20055;-86
2023/03/20 03:12:00;;;;;;;23.83;11.85;;;7.80;99.90;;;;;;5080926;28;20052;-86
2023/03/20 03:14:36;;;;;;;28.23;12.02;;;7.70;99.90;;;;;;5080052;28;20037;-87
2023/03/20 03:17:05;;;;;;;26.45;12.35;;;7.80;99.90;;;;;;5078082;28;20083;-86
2023/03/20 03:19:33;;;;;;;26.80;11.30;;;7.80;99.90;;;;;;5072317;28;20040;-85
2023/03/20 03:21:59;;;;;;;24.02;12.43;;;7.80;99.90;;;;;;5057204;28;20504;-85
2023/03/20 03:24:37;;;;;;;26.55;10.88;;;7.80;99.90;;;;;;5046960;28;20040;-86
2023/03/20 03:27:19;;;;;;;26.13;11.15;;;7.80;99.90;;;;;;5078510;28;20079;-86
2023/03/20 03:29:58;;;;;;;21.23;10.88;;;7.80;99.90;;;;;;5067744;28;20087;-85
2023/03/20 03:32:27;;;;;;;25.08;11.15;;;7.80;99.90;;;;;;5063910;28;20076;-86
2023/03/20 03:34:53;;;;;;;30.50;11.38;;;7.80;99.90;;;;;;5056942;28;20047;-85
2023/03/20 03:37:43;;;;;;;24.45;10.27;;;7.80;99.90;;;;;;5061324;28;20048;-85
2023/03/20 03:40:16;;;;;;;25.92;10.40;;;7.80;99.90;;;;;;5051986;28;20107;-86
2023/03/20 03:42:54;;;;;;;21.98;10.05;;;7.80;99.90;;;;;;5048756;28;20488;-85
2023/03/20 03:45:35;;;;;;;24.73;10.68;;;7.80;99.90;;;;;;5074296;28;20062;-85
2023/03/20 03:48:26;;;;;;;26.88;9.73;;;7.80;99.90;;;;;;5069147;28;20512;-86
2023/03/20 03:50:56;;;;;;;20.27;10.45;;;7.80;99.90;;;;;;5077169;28;20069;-86
2023/03/20 03:53:25;;;;;;;21.17;10.35;;;7.80;99.90;;;;;;5079580;28;20044;-86
2023/03/20 03:55:59;;;;;;;22.65;9.65;;;7.80;99.90;;;;;;5065352;28;20060;-87
2023/03/20 03:58:44;;;;;;;20.65;9.82;;;7.80;99.90;;;;;;5056004;28;20040;-85
2023/03/20 04:01:11;;;;;;;19.98;10.63;;;7.80;99.90;;;;;;5076241;28;20043;-86
2023/03/20 04:03:41;;;;;;;23.38;10.20;;;7.80;99.90;;;;;;5073146;28;20051;-87
2023/03/20 04:06:10;;;;;;;22.55;10.43;;;7.90;99.90;;;;;;5079408;28;20119;-86
2023/03/20 04:08:36;;;;;;;21.05;11.73;;;7.90;99.90;;;;;;5056116;28;20405;-86
2023/03/20 04:11:02;;;;;;;23.13;10.23;;;7.90;99.90;;;;;;5057677;28;20059;-86
2023/03/20 04:13:28;;;;;;;19.52;9.95;;;7.90;99.90;;;;;;5060748;28;20055;-86
2023/03/20 04:15:53;;;;;;;22.08;9.25;;;7.90;99.90;;;;;;5075720;28;20051;-85
2023/03/20 04:18:19;;;;;;;17.90;8.82;;;7.80;99.90;;;;;;5048861;28;20076;-86
2023/03/20 04:20:46;;;;;;;18.80;9.27;;;7.90;99.90;;;;;;5070228;28;20043;-87
2023/03/20 04:23:12;;;;;;;18.77;9.07;;;7.90;99.90;;;;;;5060302;28;20044;-87
2023/03/20 04:25:38;;;;;;;20.50;9.00;;;7.90;99.90;;;;;;5044791;28;20040;-86
2023/03/20 04:28:04;;;;;;;16.92;9.23;;;7.90;99.90;;;;;;5055242;28;20169;-87
2023/03/20 04:30:30;;;;;;;16.88;8.45;;;7.90;99.90;;;;;;5083500;28;20604;-86
2023/03/20 04:32:56;;;;;;;15.50;8.90;;;7.80;99.90;;;;;;5047125;28;20097;-85
2023/03/20 04:35:22;;;;;;;15.85;8.30;;;7.80;99.90;;;;;;5052940;28;20505;-86
2023/03/20 04:37:48;;;;;;;16.00;8.20;;;7.80;99.90;;;;;;5056240;28;20040;-86
2023/03/20 04:40:14;;;;;;;15.93;7.50;;;7.80;99.90;;;;;;5069787;28;20036;-86
2023/03/20 04:42:40;;;;;;;15.23;7.53;;;7.70;99.90;;;;;;5040253;28;20044;-86
2023/03/20 04:45:07;;;;;;;19.55;8.65;;;7.70;99.90;;;;;;5073110;28;20131;-86
2023/03/20 04:47:32;;;;;;;16.25;7.75;;;7.70;99.90;;;;;;5072823;28;20131;-86
2023/03/20 04:49:58;;;;;;;13.50;7.20;;;7.70;99.90;;;;;;5053773;28;20190;-86
2023/03/20 04:52:24;;;;;;;18.30;7.15;;;7.70;99.90;;;;;;5053340;28;20040;-86
2023/03/20 04:54:49;;;;;;;17.52;7.35;;;7.70;99.90;;;;;;5046036;28;20056;-87
2023/03/20 04:57:15;;;;;;;14.35;6.70;;;7.70;99.90;;;;;;5058748;28;20040;-87
2023/03/20 04:59:41;;;;;;;16.27;6.72;;;7.80;99.90;;;;;;5033447;28;20270;-86
2023/03/20 05:02:07;;;;;;;15.70;6.82;;;7.70;99.90;;;;;;5053881;28;20040;-86
2023/03/20 05:04:32;;;;;;;15.85;7.38;;;7.80;99.90;;;;;;5040173;28;20052;-86
2023/03/20 05:06:58;;;;;;;11.73;5.85;;;7.70;99.90;;;;;;5050380;28;20545;-86
2023/03/20 05:09:24;;;;;;;13.32;6.30;;;7.70;99.90;;;;;;5066841;28;20124;-86
2023/03/20 05:11:50;;;;;;;13.93;6.32;;;7.70;99.90;;;;;;5051000;28;20044;-85
2023/03/20 05:14:15;;;;;;;13.23;6.43;;;7.60;99.90;;;;;;5052029;28;20097;-87
2023/03/20 05:16:41;;;;;;;14.93;7.38;;;7.70;99.90;;;;;;5054614;28;20051;-86
2023/03/20 05:19:07;;;;;;;15.82;7.05;;;7.70;99.90;;;;;;5032740;28;20055;-86
2023/03/20 05:21:32;;;;;;;11.98;6.55;;;7.70;99.90;;;;;;5061560;28;20052;-86
2023/03/20 05:23:58;;;;;;;15.18;7.28;;;7.70;99.90;;;;;;5066552;28;20056;-86
2023/03/20 05:26:24;;;;;;;14.93;7.30;;;7.70;99.90;;;;;;5054271;28;20174;-86
2023/03/20 05:28:50;;;;;;;13.50;6.63;;;7.70;99.90;;;;;;5053084;28;20051;-86
2023/03/20 05:31:15;;;;;;;14.82;7.50;;;7.70;99.90;;;;;;5049916;28;20047;-88
2023/03/20 05:33:42;;;;;;;18.42;8.27;;;7.70;99.90;;;;;;5066906;28;20056;-87
2023/03/20 05:36:08;;;;;;;14.07;7.65;;;7.70;99.90;;;;;;5064169;28;20181;-88
2023/03/20 05:38:34;;;;;;;17.80;7.65;;;7.70;99.90;;;;;;5056593;28;20079;-90
2023/03/20 05:41:00;;;;;;;18.73;8.68;;;7.70;99.90;;;;;;5075109;28;20109;-89
2023/03/20 05:43:27;;;;;;;16.13;7.72;;;7.70;99.90;;;;;;5058239;28;20044;-86
2023/03/20 05:45:55;;;;;;;13.05;7.47;;;7.70;99.90;;;;;;5049104;28;20101;-86
2023/03/20 05:48:21;;;;;;;14.98;7.95;;;7.70;99.90;;;;;;5071832;28;20067;-88
2023/03/20 05:50:47;;;;;;;17.50;8.15;;;7.70;99.90;;;;;;5063344;28;20157;-87
2023/03/20 05:53:13;;;;;;;17.15;7.95;;;7.80;99.90;;;;;;5042593;28;20536;-86
2023/03/20 05:55:40;;;;;;;15.82;7.80;;;7.80;99.90;;;;;;5053990;28;20044;-89
2023/03/20 05:58:06;;;;;;;18.77;8.23;;;7.70;99.90;;;;;;5024206;28;20124;-88
2023/03/20 06:00:32;;;;;;;14.38;7.78;;;7.80;99.90;;;;;;5043429;28;20743;-90
2023/03/20 06:02:57;;;;;;;17.77;8.52;;;7.80;99.90;;;;;;5054119;28;20060;-87
2023/03/20 06:05:23;;;;;;;16.15;7.57;;;7.70;99.90;;;;;;5043798;28;20040;-87
2023/03/20 06:07:49;;;;;;;12.75;7.70;;;7.70;99.90;;;;;;5053060;28;20549;-87
2023/03/20 06:10:15;;;;;;;18.05;8.13;;;7.80;99.90;;;;;;5069250;28;20083;-89
2023/03/20 06:12:41;;;;;;;16.65;8.10;;;7.70;99.90;;;;;;5048903;28;20082;-90
2023/03/20 06:15:07;;;;;;;14.88;7.97;;;7.80;99.90;;;;;;5070606;28;20047;-91
2023/03/20 06:17:33;;;;;;;18.25;8.40;;;7.80;99.90;;;;;;5040522;28;20052;-87
2023/03/20 06:19:59;;;;;;;13.93;7.55;;;7.80;99.90;;;;;;5060084;28;20090;-84
2023/03/20 06:22:25;;;;;;;16.55;8.52;;;7.80;99.90;;;;;;5047433;28;20032;-86
2023/03/20 06:24:51;;;;;;;15.95;8.38;;;7.90;99.90;;;;;;5060798;28;20062;-84
2023/03/20 06:27:17;;;;;;;15.07;7.88;;;7.90;99.90;;;;;;5041132;28;20040;-88
2023/03/20 06:29:43;;;;;;;16.67;8.45;;;7.90;99.90;;;;;;5059023;28;20048;-86
2023/03/20 06:32:11;;;;;;;16.35;7.18;;;7.90;99.90;;;;;;5062741;28;20470;-86
2023/03/20 06:34:36;;;;;;;13.18;7.88;;;7.90;99.90;;;;;;5046834;28;20040;-86
2023/03/20 06:37:02;;;;;;;14.27;8.20;;;8.00;99.90;;;;;;5061837;28;20381;-87
2023/03/20 06:39:28;;;;;;;19.75;7.70;;;8.10;99.90;;;;;;5075941;28;20044;-85
2023/03/20 06:41:54;;;;;;;13.75;8.65;;;8.10;99.90;;;;;;5061277;28;20047;-83
2023/03/20 06:44:20;;;;;;;18.48;8.85;;;8.10;99.90;;;;;;5071722;28;20153;-84
2023/03/20 06:46:46;;;;;;;19.17;8.32;;;8.20;99.90;;;;;;5043754;28;20049;-84
2023/03/20 06:49:11;;;;;;;17.75;7.82;;;8.20;99.90;;;;;;5054475;28;20048;-87
2023/03/20 06:51:37;;;;;;;17.27;8.60;;;8.20;99.90;;;;;;5053999;28;20059;-87
2023/03/20 06:54:04;;;;;;;14.65;8.43;;;8.20;99.90;;;;;;5060717;28;20048;-85
2023/03/20 06:56:31;;;;;;;14.82;8.40;;;8.30;99.90;;;;;;5076777;28;20044;-84
2023/03/20 06:58:57;;;;;;;17.42;8.68;;;8.30;99.90;;;;;;5044704;28;20043;-89
2023/03/20 07:01:23;;;;;;;16.45;9.00;;;8.40;99.90;;;;;;5057214;28;20048;-87
2023/03/20 07:03:49;;;;;;;17.52;8.77;;;8.40;99.90;;;;;;5073684;28;20071;-87
2023/03/20 07:06:17;;;;;;;17.70;8.43;;;8.40;99.90;;;;;;5077102;28;20044;-87
2023/03/20 07:08:43;;;;;;;17.65;8.20;;;8.40;99.90;;;;;;5090701;28;20097;-86
2023/03/20 07:11:09;;;;;;;19.48;8.23;;;8.50;99.90;;;;;;5073295;28;20366;-88
2023/03/20 07:13:35;;;;;;;20.20;9.05;;;8.40;99.90;;;;;;5049076;28;20045;-83
2023/03/20 07:16:01;;;;;;;14.70;7.95;;;8.50;99.90;;;;;;5068140;28;20051;-88
2023/03/20 07:18:28;;;;;;;14.80;8.15;;;8.50;99.90;;;;;;5053047;28;20040;-88
2023/03/20 07:21:00;;;;;;;14.05;8.10;;;8.50;99.90;;;;;;5055312;28;20039;-88
2023/03/20 07:23:26;;;;;;;17.40;8.48;;;8.50;99.90;;;;;;5090695;28;20053;-89
2023/03/20 07:25:51;;;;;;;18.67;8.80;;;8.60;99.90;;;;;;5072225;28;20079;-89
2023/03/20 07:28:17;;;;;;;14.68;8.68;;;8.60;99.90;;;;;;5064433;28;20509;-89
2023/03/20 07:30:43;;;;;;;15.65;7.60;;;8.70;99.90;;;;;;5059135;28;20048;-89
2023/03/20 07:33:09;;;;;;;16.35;8.20;;;8.70;99.90;;;;;;5039336;28;20044;-87
2023/03/20 07:35:34;;;;;;;22.63;8.15;;;8.80;99.90;;;;;;5055602;28;20044;-87
2023/03/20 07:38:00;;;;;;;16.98;8.18;;;8.80;99.90;;;;;;5050633;28;20400;-86
2023/03/20 07:40:26;;;;;;;17.33;8.68;;;8.80;99.90;;;;;;5070838;28;20040;-87
2023/03/20 07:42:52;;;;;;;14.65;8.52;;;8.80;99.90;;;;;;5044019;28;20447;-88
2023/03/20 07:45:17;;;;;;;17.27;8.35;;;8.80;99.90;;;;;;5055114;28;20098;-85
2023/03/20 07:47:45;;;;;;;15.50;8.07;;;8.80;99.90;;;;;;5072782;28;20048;-87
2023/03/20 07:50:11;;;;;;;18.35;9.15;;;8.90;99.90;;;;;;5039447;28;20048;-89
2023/03/20 07:52:37;;;;;;;15.88;8.60;;;8.90;99.90;;;;;;5039296;28;20078;-88
2023/03/20 07:55:02;;;;;;;15.32;7.40;;;9.00;99.90;;;;;;5086438;28;20053;-87
2023/03/20 07:57:28;;;;;;;18.48;9.30;;;9.10;99.90;;;;;;5073656;28;20047;-86
2023/03/20 07:59:54;;;;;;;17.58;8.80;;;9.10;99.90;;;;;;5072468;28;20097;-87
2023/03/20 08:02:19;;;;;;;21.00;9.15;;;9.20;99.90;;;;;;5073575;28;20077;-87
2023/03/20 08:04:45;;;;;;;17.63;8.90;;;9.30;99.90;;;;;;5055408;28;20119;-88
2023/03/20 08:07:11;;;;;;;15.90;8.23;;;9.20;99.90;;;;;;5036795;28;20056;-88
2023/03/20 08:09:37;;;;;;;19.10;9.00;;;9.30;99.90;;;;;;5055227;28;20648;-88
2023/03/20 08:12:04;;;;;;;15.68;8.57;;;9.30;99.90;;;;;;5046283;28;20288;-88
2023/03/20 08:14:29;;;;;;;17.02;8.63;;;9.30;99.90;;;;;;5036480;28;20080;-88
2023/03/20 08:16:56;;;;;;;19.42;10.20;;;9.30;99.90;;;;;;5028722;28;20447;-86
2023/03/20 08:19:22;;;;;;;20.63;9.95;;;9.30;99.90;;;;;;5054920;28;20044;-88
2023/03/20 08:21:50;;;;;;;16.20;8.93;;;9.40;99.90;;;;;;5055322;28;20146;-87
2023/03/20 08:24:16;;;;;;;17.25;8.85;;;9.40;99.90;;;;;;5055428;28;20047;-88
2023/03/20 08:26:42;;;;;;;18.73;9.80;;;9.50;99.90;;;;;;5062130;28;20048;-89
2023/03/20 08:29:08;;;;;;;19.17;9.32;;;9.50;99.90;;;;;;5048708;28;20135;-87
2023/03/20 08:31:34;;;;;;;18.80;9.57;;;9.50;99.90;;;;;;5082496;28;20784;-88
2023/03/20 08:34:00;;;;;;;15.32;8.55;;;9.60;99.90;;;;;;5054796;28;20134;-86
2023/03/20 08:36:26;;;;;;;18.02;9.20;;;9.70;99.90;;;;;;5055160;28;20068;-87
2023/03/20 08:38:51;;;;;;;19.77;9.68;;;9.70;99.90;;;;;;5065831;28;20048;-87
2023/03/20 08:41:18;;;;;;;21.05;9.35;;;9.90;99.90;;;;;;5055818;28;20044;-85
2023/03/20 08:43:45;;;;;;;19.63;9.43;;;9.80;99.90;;;;;;5040411;28;20613;-88
2023/03/20 08:46:10;;;;;;;16.13;8.93;;;9.90;99.90;;;;;;5051974;28;20041;-85
2023/03/20 08:48:36;;;;;;;17.60;8.73;;;10.10;99.90;;;;;;5051963;28;20389;-87
2023/03/20 08:51:03;;;;;;;16.67;8.95;;;10.10;99.90;;;;;;5059994;28;20054;-89
2023/03/20 08:53:28;;;;;;;19.67;9.40;;;10.20;99.90;;;;;;5038453;28;20079;-86
2023/03/20 08:55:55;;;;;;;18.20;8.70;;;10.40;99.90;;;;;;5071667;28;20067;-88
2023/03/20 08:58:21;;;;;;;16.48;9.05;;;10.50;99.90;;;;;;5088225;28;20040;-89
2023/03/20 09:00:47;;;;;;;18.25;9.15;;;10.40;99.90;;;;;;5071773;28;20122;-89
2023/03/20 09:03:19;;;;;;;18.27;8.73;;;10.40;99.90;;;;;;5054201;28;20127;-87
2023/03/20 09:05:51;;;;;;;16.30;8.90;;;10.40;99.90;;;;;;5045152;28;20094;-87
2023/03/20 09:08:17;;;;;;;19.10;9.23;;;10.30;99.90;;;;;;5072313;28;20534;-88
2023/03/20 09:10:43;;;;;;;16.88;8.57;;;10.40;99.90;;;;;;5088627;28;20135;-87
2023/03/20 09:13:09;;;;;;;17.50;8.70;;;10.50;99.90;;;;;;5054564;28;20127;-87
2023/03/20 09:15:35;;;;;;;17.83;8.05;;;10.60;99.90;;;;;;5055226;28;20047;-88
2023/03/20 09:18:01;;;;;;;16.50;8.07;;;10.70;99.90;;;;;;5048796;28;20040;-87
2023/03/20 09:20:26;;;;;;;21.67;9.30;;;10.90;99.90;;;;;;5063682;28;20401;-88
2023/03/20 09:22:52;;;;;;;14.50;7.57;;;11.10;99.90;;;;;;5054080;28;20163;-84
2023/03/20 09:25:18;;;;;;;18.02;8.63;;;11.00;99.90;;;;;;5054521;28;20055;-86
2023/03/20 09:27:44;;;;;;;16.05;8.00;;;10.90;99.90;;;;;;5054344;28;20055;-86
2023/03/20 09:30:11;;;;;;;15.55;8.88;;;10.80;99.90;;;;;;5053959;28;20461;-88
2023/03/20 09:32:36;;;;;;;13.15;8.18;;;10.80;99.90;;;;;;5054369;28;20121;-88
2023/03/20 09:35:03;;;;;;;13.43;7.93;;;10.90;99.90;;;;;;5037573;28;20504;-88
2023/03/20 09:37:29;;;;;;;13.35;8.40;;;11.10;99.90;;;;;;5066274;28;20048;-88
2023/03/20 09:39:54;;;;;;;14.48;7.65;;;11.50;99.90;;;;;;5050929;28;20509;-83
2023/03/20 09:42:49;;;;;;;14.70;7.63;;;11.70;99.90;;;;;;5066965;28;20048;-88
2023/03/20 09:45:30;;;;;;;15.43;6.97;;;11.90;99.90;;;;;;5068697;28;20225;-87
2023/03/20 09:48:14;;;;;;;14.57;8.13;;;12.10;99.90;;;;;;5053715;28;20059;-84
2023/03/20 09:51:24;;;;;;;15.43;7.47;;;12.20;99.90;;;;;;5070441;28;20532;-86
2023/03/20 09:53:57;;;;;;;16.30;8.45;;;12.10;99.90;;;;;;5057908;28;20476;-87
2023/03/20 09:56:26;;;;;;;12.88;7.50;;;12.10;99.90;;;;;;5054430;28;20059;-85
2023/03/20 09:59:01;;;;;;;14.48;7.60;;;11.90;99.90;;;;;;5042126;28;20566;-86
2023/03/20 10:01:36;;;;;;;15.15;7.70;;;11.90;99.90;;;;;;5087613;28;20044;-87
2023/03/20 10:04:08;;;;;;;14.27;7.05;;;12.00;99.90;;;;;;5060881;28;20053;-87
2023/03/20 10:06:34;;;;;;;14.23;8.20;;;11.90;99.90;;;;;;5051271;28;20055;-86
2023/03/20 10:09:01;;;;;;;15.27;7.72;;;11.80;99.90;;;;;;5067889;28;20044;-83
2023/03/20 10:11:52;;;;;;;16.38;7.95;;;11.80;99.90;;;;;;5051009;28;20044;-87
2023/03/20 10:14:24;;;;;;;18.27;7.82;;;11.80;99.90;;;;;;5039842;28;20123;-86
2023/03/20 10:17:17;;;;;;;20.30;9.50;;;11.70;99.90;;;;;;5073596;28;20123;-87
2023/03/20 10:19:44;;;;;;;18.35;9.20;;;11.70;99.90;;;;;;5073774;28;20039;-86
2023/03/20 10:22:26;;;;;;;16.05;9.27;;;12.00;99.90;;;;;;5074271;28;20055;-87
2023/03/20 10:25:18;;;;;;;15.90;7.80;;;12.20;99.90;;;;;;5079943;28;20439;-88
2023/03/20 10:28:00;;;;;;;15.85;7.80;;;12.70;99.90;;;;;;5069077;28;20127;-87
2023/03/20 10:30:26;;;;;;;17.73;9.50;;;13.00;99.90;;;;;;5058093;28;20047;-88
2023/03/20 10:33:34;;;;;;;16.33;8.10;;;12.70;99.90;;;;;;5071170;28;20501;-88
2023/03/20 10:36:26;;;;;;;16.50;8.23;;;12.30;99.90;;;;;;5061775;28;20374;-86
2023/03/20 10:39:08;;;;;;;21.67;9.50;;;11.80;99.90;;;;;;5066355;28;20063;-89
2023/03/20 10:41:38;;;;;;;17.52;8.88;;;11.60;99.90;;;;;;5074690;28;20080;-88
2023/03/20 10:44:05;;;;;;;18.45;9.52;;;11.40;99.90;;;;;;5055989;28;20567;-87
2023/03/20 10:46:35;;;;;;;17.60;8.77;;;11.20;99.90;;;;;;5091251;28;20048;-87
2023/03/20 10:49:18;;;;;;;19.98;10.15;;;11.10;99.90;;;;;;5057366;28;20050;-88
2023/03/20 10:51:58;;;;;;;17.73;8.85;;;11.10;99.90;;;;;;5060840;28;20053;-86
2023/03/20 10:54:29;;;;;;;16.52;9.13;;;11.10;99.90;;;;;;5073908;28;20043;-87
2023/03/20 10:56:57;;;;;;;19.80;9.68;;;11.10;99.90;;;;;;5073906;28;20040;-87
2023/03/20 10:59:23;;;;;;;21.02;9.60;;;11.30;99.90;;;;;;5073425;28;20059;-87
2023/03/20 11:01:49;;;;;;;13.70;8.45;;;11.50;99.90;;;;;;5039315;28;20048;-86
2023/03/20 11:04:14;;;;;;;16.58;8.05;;;11.60;99.90;;;;;;5048323;28;20442;-87
2023/03/20 11:06:59;;;;;;;16.77;6.50;;;11.60;99.90;;;;;;5068550;28;20098;-86
2023/03/20 11:09:28;;;;;;;13.48;7.75;;;11.40;99.90;;;;;;5067708;28;20694;-87
2023/03/20 11:11:56;;;;;;;18.02;8.43;;;11.30;99.90;;;;;;5074100;28;20508;-87
2023/03/20 11:14:32;;;;;;;12.80;8.10;;;11.20;99.90;;;;;;5073258;28;20047;-90
2023/03/20 11:17:02;;;;;;;15.13;7.95;;;11.20;99.90;;;;;;5074254;28;20048;-87
2023/03/20 11:19:33;;;;;;;13.43;7.40;;;11.10;99.90;;;;;;5085392;28;20560;-87
2023/03/20 11:22:05;;;;;;;11.27;6.90;;;11.00;99.90;;;;;;5070689;28;20055;-86
2023/03/20 11:24:42;;;;;;;17.98;8.15;;;11.00;99.90;;;;;;5058793;28;20044;-87
2023/03/20 11:27:09;;;;;;;;;;;11.00;99.90;;;;;;5072292;28;20477;-84
2023/03/20 11:29:36;;;;;;;28.20;7.20;;;11.10;99.90;;;;;;5073827;28;19920;-87
2023/03/20 11:32:40;;;;;;;11.52;6.40;;;11.30;99.90;;;;;;5053474;28;20044;-89
2023/03/20 11:35:15;;;;;;;8.95;5.70;;;11.20;99.90;;;;;;5054168;28;20048;-89
2023/03/20 11:37:47;;;;;;;10.75;6.40;;;11.10;99.90;;;;;;5072105;28;20079;-89
2023/03/20 11:40:20;;;;;;;12.18;6.78;;;11.00;99.90;;;;;;5056522;28;20404;-89
2023/03/20 11:43:20;;;;;;;15.13;7.35;;;11.00;99.90;;;;;;5057284;28;20510;-89
2023/03/20 11:46:09;;;;;;;12.18;7.10;;;10.90;99.90;;;;;;5057818;28;20064;-88
2023/03/20 11:48:41;;;;;;;12.75;6.68;;;10.90;99.90;;;;;;5072683;28;20048;-88
2023/03/20 11:51:09;;;;;;;15.95;6.93;;;10.80;99.90;;;;;;5090455;28;20048;-87
2023/03/20 11:53:45;;;;;;;11.90;5.82;;;10.80;99.90;;;;;;5056093;28;20048;-88
2023/03/20 11:56:23;;;;;;;11.70;6.30;;;10.80;99.90;;;;;;5073224;28;20058;-84
2023/03/20 11:59:13;;;;;;;13.10;6.70;;;10.70;99.90;;;;;;5060774;28;20044;-89
2023/03/20 12:01:47;;;;;;;11.68;5.97;;;10.60;99.90;;;;;;5069529;28;20063;-89
2023/03/20 12:04:19;;;;;;;15.13;6.22;;;10.60;99.90;;;;;;5056355;28;20056;-84
2023/03/20 12:06:51;;;;;;;15.00;6.60;;;10.60;99.90;;;;;;5072703;28;20048;-88
2023/03/20 12:09:45;;;;;;;13.00;6.63;;;10.60;99.90;;;;;;5055989;28;20043;-89
2023/03/20 12:12:35;;;;;;;12.73;6.15;;;10.80;99.90;;;;;;5073056;28;20063;-87
2023/03/20 12:15:07;;;;;;;11.18;6.07;;;10.90;99.90;;;;;;5077743;28;20052;-89
2023/03/20 12:17:55;;;;;;;16.73;6.30;;;10.80;99.90;;;;;;5071435;28;20052;-89
2023/03/20 12:20:49;;;;;;;14.63;5.88;;;10.60;99.90;;;;;;5071906;28;20119;-89
2023/03/20 12:23:33;;;;;;;9.93;4.30;;;10.50;99.90;;;;;;5079042;28;20039;-85
2023/03/20 12:26:10;;;;;;;10.57;4.38;;;10.40;99.90;;;;;;5072252;28;20066;-87
2023/03/20 12:28:53;;;;;;;16.48;4.97;;;10.20;99.90;;;;;;5055143;28;20198;-90
2023/03/20 12:31:30;;;;;;;9.20;3.63;;;10.10;99.90;;;;;;5079016;28;20047;-88
2023/03/20 12:34:17;;;;;;;7.10;3.35;;;10.10;99.90;;;;;;5052689;28;20043;-88
2023/03/20 12:36:48;;;;;;;13.18;4.40;;;9.90;99.90;;;;;;5067274;28;20093;-88
2023/03/20 12:39:17;;;;;;;10.00;4.20;;;9.90;99.90;;;;;;5051557;28;20040;-87
2023/03/20 12:42:03;;;;;;;6.25;4.05;;;10.10;99.90;;;;;;5056112;28;20047;-88
2023/03/20 12:44:38;;;;;;;9.20;3.80;;;10.30;99.90;;;;;;5065410;28;20068;-87
2023/03/20 12:47:26;;;;;;;9.15;3.30;;;10.40;99.90;;;;;;5057232;28;20163;-86
2023/03/20 12:50:04;;;;;;;6.30;2.70;;;10.60;99.90;;;;;;5065254;28;20075;-88
2023/03/20 12:52:49;;;;;;;6.63;2.88;;;10.70;99.90;;;;;;5065337;28;20040;-88
2023/03/20 12:55:39;;;;;;;10.48;3.60;;;10.70;99.90;;;;;;5082731;28;20123;-86
2023/03/20 12:58:35;;;;;;;6.47;3.13;;;10.40;99.90;;;;;;5088565;28;20051;-89
2023/03/20 13:01:12;;;;;;;7.32;3.80;;;10.30;99.90;;;;;;5072138;28;20089;-87
2023/03/20 13:03:47;;;;;;;9.15;4.22;;;10.00;99.90;;;;;;5068380;28;20071;-86
2023/03/20 13:06:42;;;;;;;8.75;4.68;;;9.80;99.90;;;;;;5055090;28;20051;-87